GCGM/GMZ METAR and TAF weather

Enter ICAO airport designator
Station Type Date Time Source
GCGM METAR 2021/09/27 06:00 UTC NOAA

GCGM 270600Z VRB02KT CAVOK 22/15 Q1019 RMK R09/VRB01KT ARP/VRB02KT


Station Type Date Time Source
GCGM Decoded METAR 2021/09/27 06:00 UTC NOAA

Station name not available
Sep 27, 2021 - 02:00 AM EDT / 2021.09.27 0600 UTC
Wind: Variable at 2 MPH (2 KT):0
Visibility: greater than 7 mile(s):0
Temperature: 71 F (22 C)
Dew Point: 59 F (15 C)
Relative Humidity: 64%
Pressure (altimeter): 30.09 in. Hg (1019 hPa)
ob: GCGM 270600Z VRB02KT CAVOK 22/15 Q1019 RMK R09/VRB01KT ARP/VRB02KT
cycle: 6

Station Type Date Time Source
GCGM TAF 2021/09/27 03:00 UTC NOAA

TAF GCGM 270200Z 2703/2803 VRB04KT CAVOK TX28/2714Z TN21/2706Z
BECMG 2709/2712 22010KT

Example: see airport list